createdAt,value
2022-09-15T00:14:00.136Z,18.11
2022-09-15T00:33:59.991Z,18.09
2022-09-15T00:54:00.011Z,18.02
2022-09-15T01:13:59.973Z,18.04
2022-09-15T01:33:59.952Z,18.02
2022-09-15T01:53:59.866Z,18.02
2022-09-15T02:13:59.889Z,18.53
2022-09-15T02:33:59.810Z,18.63
2022-09-15T02:53:59.854Z,18.53
2022-09-15T03:13:59.850Z,18.56
2022-09-15T03:33:59.836Z,18.57
2022-09-15T03:53:59.792Z,18.47
2022-09-15T04:13:59.731Z,18.36
2022-09-15T04:33:59.817Z,18.40
2022-09-15T04:53:59.653Z,18.47
2022-09-15T05:13:59.676Z,18.50
2022-09-15T05:33:59.715Z,18.64
2022-09-15T05:53:59.614Z,18.68
2022-09-15T06:13:59.534Z,18.69
2022-09-15T06:33:59.553Z,18.76
2022-09-15T06:53:59.602Z,18.81
2022-09-15T07:13:59.497Z,18.87
2022-09-15T07:33:59.507Z,18.84
2022-09-15T07:53:59.430Z,19.03
2022-09-15T08:13:59.453Z,19.47
2022-09-15T08:33:59.422Z,19.74
2022-09-15T08:53:59.396Z,19.81
2022-09-15T09:13:59.312Z,19.81
2022-09-15T09:53:59.309Z,20.97
2022-09-15T10:13:59.331Z,21.37
2022-09-15T10:33:59.192Z,20.88
2022-09-15T10:53:59.221Z,21.26
2022-09-15T11:13:59.207Z,20.96
2022-09-15T11:33:59.217Z,21.06
2022-09-15T11:53:59.091Z,21.17
2022-09-15T12:13:59.203Z,20.92
2022-09-15T12:33:59.107Z,20.75
2022-09-15T12:53:59.005Z,20.39
2022-09-15T13:13:59.176Z,19.81
2022-09-15T13:33:58.954Z,20.48
2022-09-15T13:53:59.042Z,20.53
2022-09-15T14:13:58.909Z,20.31
2022-09-15T14:33:58.985Z,18.36
2022-09-15T14:53:58.860Z,16.54
2022-09-15T15:13:59.002Z,16.12
2022-09-15T15:33:58.892Z,16.51
2022-09-15T15:53:58.827Z,16.39
2022-09-15T16:13:58.836Z,16.02
2022-09-15T16:33:58.759Z,15.36
2022-09-15T16:53:58.784Z,15.16
2022-09-15T17:13:58.700Z,15.01
2022-09-15T17:33:58.723Z,14.75
2022-09-15T17:53:58.654Z,14.65
2022-09-15T18:13:58.671Z,14.89
2022-09-15T18:33:58.687Z,15.11
2022-09-15T18:53:58.608Z,15.07
2022-09-15T19:13:58.631Z,15.20
2022-09-15T19:33:58.583Z,15.21
2022-09-15T19:53:58.688Z,14.88
2022-09-15T20:33:58.512Z,14.94
2022-09-15T20:53:58.532Z,14.99
2022-09-15T21:13:58.454Z,15.00
2022-09-15T21:33:58.480Z,14.98
2022-09-15T21:53:58.396Z,14.77
2022-09-15T22:13:58.445Z,14.58
2022-09-15T22:33:58.335Z,14.43
2022-09-15T22:53:58.351Z,14.27
2022-09-15T23:13:58.378Z,14.20
2022-09-15T23:33:58.312Z,14.22
2022-09-15T23:53:58.310Z,14.20
